sensor_id;sensor_type;location;lat;lon;timestamp;temperature;humidity
71175;DHT22;58876;51.994;4.472;2022-10-23T00:00:30;15.15;80.03
71175;DHT22;58876;51.994;4.472;2022-10-23T00:02:56;15.11;80.39
71175;DHT22;58876;51.994;4.472;2022-10-23T00:05:22;15.05;80.34
71175;DHT22;58876;51.994;4.472;2022-10-23T00:07:49;15.04;80.59
71175;DHT22;58876;51.994;4.472;2022-10-23T00:10:15;15.02;80.87
71175;DHT22;58876;51.994;4.472;2022-10-23T00:12:41;15.01;80.58
71175;DHT22;58876;51.994;4.472;2022-10-23T00:15:07;14.96;80.59
71175;DHT22;58876;51.994;4.472;2022-10-23T00:17:32;14.89;80.48
71175;DHT22;58876;51.994;4.472;2022-10-23T00:19:59;14.95;80.44
71175;DHT22;58876;51.994;4.472;2022-10-23T00:22:25;14.92;80.50
71175;DHT22;58876;51.994;4.472;2022-10-23T00:24:50;14.92;80.51
71175;DHT22;58876;51.994;4.472;2022-10-23T00:27:16;14.89;80.52
71175;DHT22;58876;51.994;4.472;2022-10-23T00:29:43;14.92;80.48
71175;DHT22;58876;51.994;4.472;2022-10-23T00:32:09;14.95;80.63
71175;DHT22;58876;51.994;4.472;2022-10-23T00:34:35;14.95;80.54
71175;DHT22;58876;51.994;4.472;2022-10-23T00:37:01;14.84;80.53
71175;DHT22;58876;51.994;4.472;2022-10-23T00:39:27;14.87;80.96
71175;DHT22;58876;51.994;4.472;2022-10-23T00:41:53;14.91;80.81
71175;DHT22;58876;51.994;4.472;2022-10-23T00:46:44;14.88;80.87
71175;DHT22;58876;51.994;4.472;2022-10-23T00:49:11;14.89;80.74
71175;DHT22;58876;51.994;4.472;2022-10-23T00:51:43;14.87;80.78
71175;DHT22;58876;51.994;4.472;2022-10-23T00:54:13;14.88;80.88
71175;DHT22;58876;51.994;4.472;2022-10-23T00:56:42;14.84;80.85
71175;DHT22;58876;51.994;4.472;2022-10-23T00:59:08;14.78;80.88
71175;DHT22;58876;51.994;4.472;2022-10-23T01:01:34;14.80;81.10
71175;DHT22;58876;51.994;4.472;2022-10-23T01:04:04;14.84;80.87
71175;DHT22;58876;51.994;4.472;2022-10-23T01:06:41;14.83;80.96
71175;DHT22;58876;51.994;4.472;2022-10-23T01:09:21;14.85;80.96
71175;DHT22;58876;51.994;4.472;2022-10-23T01:12:18;14.85;81.16
71175;DHT22;58876;51.994;4.472;2022-10-23T01:17:41;14.75;81.20
71175;DHT22;58876;51.994;4.472;2022-10-23T01:31:57;14.65;81.21
71175;DHT22;58876;51.994;4.472;2022-10-23T01:34:48;14.68;81.20
71175;DHT22;58876;51.994;4.472;2022-10-23T01:37:20;14.67;81.43
71175;DHT22;58876;51.994;4.472;2022-10-23T01:39:52;14.67;81.65
71175;DHT22;58876;51.994;4.472;2022-10-23T01:42:26;14.68;81.56
71175;DHT22;58876;51.994;4.472;2022-10-23T01:45:00;14.68;81.61
71175;DHT22;58876;51.994;4.472;2022-10-23T01:47:30;14.68;81.59
71175;DHT22;58876;51.994;4.472;2022-10-23T01:50:01;14.68;81.44
71175;DHT22;58876;51.994;4.472;2022-10-23T01:52:27;14.67;81.54
71175;DHT22;58876;51.994;4.472;2022-10-23T01:54:57;14.64;81.64
71175;DHT22;58876;51.994;4.472;2022-10-23T01:57:27;14.61;81.77
